Ce site web utilise les _ga y _gid propriété de Google Analytics, qui persistent pendant 2 ans, pour habiliter la fonction de contrôle des visites uniques afin de vous faciliter la navigation sur le site web. Si vous continuez votre navigation nous considérons que vous êtes d’accord avec leur utilisation. Vous pourrez révoquer le consentement et obtenir plus d’informations en consultant notre Politique de Cookies.

Imag

Imag g2 track10843260IMAG G2 TRACK 5000 WW SP WH.

Projecteur pour rail triphasé universel multidirectionnel modèle IMAG G2 TRACK 5000 WW SP WH. de la marque LAMP. Fabriqué en aluminium injecté et polycarbonate, peint couleur blanc texturé. Dissipation passive pour une gestion thermique appropriée. Modèle pour LED COB, avec température de couleur blanc chaud et équipement électronique incorporé. Réflecteur en aluminium haute pureté Spot. Classe d'isolation II.
Ouverture:
20º
Puissance:
44W
Température de couleur:
3000K
IRC:
80
Flux lumineux:
4699
Équipement:
Pas réglable
Finition:
Blanc matt texturé

Données photométriques

Avez-vous besoin de plus d'informations?

Variantes de ce produit

CodeWKIRClm outÉquipementFinitionlmÉquipement
1084309218º30W3000K803489-Graphite4000Pas réglable
1084309018º30W3000K803489-Blanc4000Pas réglable
1084308233º26W3000K802662-Graphite3000Pas réglable
1084308033º26W3000K802662-Blanc3000Pas réglable
1084307222º26W3000K802646-Graphite3000Pas réglable
1084307022º26W3000K802646-Blanc3000Pas réglable
1084306216º26W3000K802493-Graphite3000Pas réglable
1084306016º26W3000K802493-Blanc3000Pas réglable
1084305233º15W3000K801798-Graphite2000Pas réglable
1084305033º15W3000K801798-Blanc2000Pas réglable
1084304222º15W3000K801787-Graphite2000Pas réglable
1084304022º15W3000K801787-Blanc2000Pas réglable
1084303216º15W3000K801684-Graphite2000Pas réglable
1084303016º15W3000K801684-Blanc2000Pas réglable
1084311235º30W3000K803689-Graphite4000Pas réglable
1084311035º30W3000K803689-Blanc4000Pas réglable
1084310224º30W3000K803600-Graphite4000Pas réglable
1084310024º30W3000K803600-Blanc4000Pas réglable
1084328236º44W3000K804783-Graphite5000Pas réglable
1084328036º44W3000K804783-Blanc5000Pas réglable
1084327226º44W3000K804795-Graphite5000Pas réglable
1084327026º44W3000K804795-Blanc5000Pas réglable
1084326220º44W3000K804699-Graphite5000Pas réglable
1084326020º44W3000K804699-Blanc5000Pas réglable
1084355256º30W3000K803732-Graphite4000Pas réglable
1084355056º30W3000K803732-Blanc4000Pas réglable
1084353257º26W3000K802984-Graphite3000Pas réglable
1084353057º26W3000K802984-Blanc3000Pas réglable
1084351257º15W3000K802016-Graphite2000Pas réglable
1084351057º15W3000K802016-Blanc2000Pas réglable
1084409218º30W4000K803800-Graphite4000Pas réglable
1084409018º30W4000K803800-Blanc4000Pas réglable
1084408233º26W4000K802859-Graphite3000Pas réglable
1084408033º26W4000K802859-Blanc3000Pas réglable
1084407222º26W4000K802845-Graphite3000Pas réglable
1084407022º26W4000K802845-Blanc3000Pas réglable
1084406216º26W4000K802715-Graphite3000Pas réglable
1084406016º26W4000K802715-Blanc3000Pas réglable
1084405233º15W4000K801922-Graphite2000Pas réglable
1084405033º15W4000K801922-Blanc2000Pas réglable
1084404222º15W4000K801910-Graphite2000Pas réglable
1084404022º15W4000K801910-Blanc2000Pas réglable
1084403216º15W4000K801800-Graphite2000Pas réglable
1084403016º15W4000K801800-Blanc2000Pas réglable
1084456256º44W4000K805047-Graphite5000Pas réglable
1084456056º44W4000K805047-Blanc5000Pas réglable
1084455256º30W4000K804057-Graphite4000Pas réglable
1084455056º30W4000K804057-Blanc4000Pas réglable
1084453257º26W4000K803108-Graphite3000Pas réglable
1084453057º26W4000K803108-Blanc3000Pas réglable
1084451257º15W4000K802100-Graphite2000Pas réglable
1084451057º15W4000K802100-Blanc2000Pas réglable
1084428236º44W4000K804893-Graphite5000Pas réglable
1084428036º44W4000K804893-Blanc5000Pas réglable
1084427226º44W4000K804964-Graphite5000Pas réglable
1084427026º44W4000K804964-Blanc5000Pas réglable
1084426220º44W4000K804895-Graphite5000Pas réglable
1084426020º44W4000K804895-Blanc5000Pas réglable
1084411235º30W4000K804017-Graphite4000Pas réglable
1084411035º30W4000K804017-Blanc4000Pas réglable
1084410224º30W4000K803920-Graphite4000Pas réglable
1084410024º30W4000K803920-Blanc4000Pas réglable
1084356256º44W3000K804845-Graphite5000Pas réglable
1084356056º44W3000K804845-Blanc5000Pas réglable
1084325033º30W3000K902822-Blanc3000Pas réglable
1084324222º30W3000K902805-Graphite3000Pas réglable
1084324022º30W3000K902805-Blanc3000Pas réglable
1084323216º30W3000K902643-Graphite3000Pas réglable
1084323016º30W3000K902643-Blanc3000Pas réglable
1084322233º19W3000K901957-Graphite2000Pas réglable
1084322033º19W3000K901957-Blanc2000Pas réglable
1084321222º19W3000K901945-Graphite2000Pas réglable
1084321022º19W3000K901945-Blanc2000Pas réglable
1084320216º19W3000K901833-Graphite2000Pas réglable
1084320016º19W3000K901833-Blanc2000Pas réglable

Accessoires

Montage